sensor_id;sensor_type;location;lat;lon;timestamp;temperature;humidity
43862;DHT22;29510;52.140;5.034;2024-02-21T00:07:01;10.00;35.60
43862;DHT22;29510;52.140;5.034;2024-02-21T00:17:01;10.00;39.30
43862;DHT22;29510;52.140;5.034;2024-02-21T00:27:02;9.90;47.60
43862;DHT22;29510;52.140;5.034;2024-02-21T00:37:02;9.90;46.80
43862;DHT22;29510;52.140;5.034;2024-02-21T00:47:03;9.90;49.30
43862;DHT22;29510;52.140;5.034;2024-02-21T00:57:04;9.90;56.60
43862;DHT22;29510;52.140;5.034;2024-02-21T01:07:04;10.00;53.60
43862;DHT22;29510;52.140;5.034;2024-02-21T01:17:05;10.00;56.80
43862;DHT22;29510;52.140;5.034;2024-02-21T01:27:06;10.10;55.10
43862;DHT22;29510;52.140;5.034;2024-02-21T01:37:07;10.00;54.20
43862;DHT22;29510;52.140;5.034;2024-02-21T01:47:08;10.10;49.70
43862;DHT22;29510;52.140;5.034;2024-02-21T01:57:08;10.10;45.70
43862;DHT22;29510;52.140;5.034;2024-02-21T02:07:09;10.20;43.60
43862;DHT22;29510;52.140;5.034;2024-02-21T02:17:10;10.20;41.00
43862;DHT22;29510;52.140;5.034;2024-02-21T02:27:10;10.20;40.80
43862;DHT22;29510;52.140;5.034;2024-02-21T02:37:11;10.30;38.20
43862;DHT22;29510;52.140;5.034;2024-02-21T02:47:12;10.20;42.50
43862;DHT22;29510;52.140;5.034;2024-02-21T02:57:12;10.10;45.00
43862;DHT22;29510;52.140;5.034;2024-02-21T03:07:14;10.10;44.60
43862;DHT22;29510;52.140;5.034;2024-02-21T03:17:15;10.10;47.60
43862;DHT22;29510;52.140;5.034;2024-02-21T03:27:15;10.10;44.60
43862;DHT22;29510;52.140;5.034;2024-02-21T03:37:16;10.10;45.80
43862;DHT22;29510;52.140;5.034;2024-02-21T03:47:17;10.10;47.00
43862;DHT22;29510;52.140;5.034;2024-02-21T03:57:17;10.00;48.60
43862;DHT22;29510;52.140;5.034;2024-02-21T04:07:18;10.00;52.90
43862;DHT22;29510;52.140;5.034;2024-02-21T04:17:18;9.90;58.70
43862;DHT22;29510;52.140;5.034;2024-02-21T04:27:19;9.90;48.90
43862;DHT22;29510;52.140;5.034;2024-02-21T04:37:21;9.80;56.90
43862;DHT22;29510;52.140;5.034;2024-02-21T04:47:22;9.70;58.60
43862;DHT22;29510;52.140;5.034;2024-02-21T04:57:26;9.70;56.00
43862;DHT22;29510;52.140;5.034;2024-02-21T05:07:27;9.70;58.50
43862;DHT22;29510;52.140;5.034;2024-02-21T05:17:28;9.70;60.80
43862;DHT22;29510;52.140;5.034;2024-02-21T05:27:28;9.60;65.30
43862;DHT22;29510;52.140;5.034;2024-02-21T05:37:29;9.60;63.50
43862;DHT22;29510;52.140;5.034;2024-02-21T05:47:29;9.60;65.10
43862;DHT22;29510;52.140;5.034;2024-02-21T05:57:30;9.60;68.50
43862;DHT22;29510;52.140;5.034;2024-02-21T06:07:30;9.60;73.40
43862;DHT22;29510;52.140;5.034;2024-02-21T06:17:31;9.60;69.00
43862;DHT22;29510;52.140;5.034;2024-02-21T06:27:32;9.60;76.20
43862;DHT22;29510;52.140;5.034;2024-02-21T06:37:33;9.70;68.70
43862;DHT22;29510;52.140;5.034;2024-02-21T06:47:33;9.60;64.50
43862;DHT22;29510;52.140;5.034;2024-02-21T06:57:34;9.60;62.40
43862;DHT22;29510;52.140;5.034;2024-02-21T07:07:34;9.50;62.60
43862;DHT22;29510;52.140;5.034;2024-02-21T07:17:35;9.50;61.30
43862;DHT22;29510;52.140;5.034;2024-02-21T07:27:36;9.50;55.60
43862;DHT22;29510;52.140;5.034;2024-02-21T07:37:38;9.40;56.80
43862;DHT22;29510;52.140;5.034;2024-02-21T07:47:38;9.40;55.10
43862;DHT22;29510;52.140;5.034;2024-02-21T07:57:39;9.40;61.40
43862;DHT22;29510;52.140;5.034;2024-02-21T08:07:40;9.40;71.30
43862;DHT22;29510;52.140;5.034;2024-02-21T08:17:40;9.50;59.40
43862;DHT22;29510;52.140;5.034;2024-02-21T08:27:41;9.40;73.40
43862;DHT22;29510;52.140;5.034;2024-02-21T08:37:42;9.50;71.80
43862;DHT22;29510;52.140;5.034;2024-02-21T08:47:43;9.60;59.30
43862;DHT22;29510;52.140;5.034;2024-02-21T08:57:45;9.60;57.90
43862;DHT22;29510;52.140;5.034;2024-02-21T09:07:45;9.70;46.80
43862;DHT22;29510;52.140;5.034;2024-02-21T09:17:46;9.60;42.80
43862;DHT22;29510;52.140;5.034;2024-02-21T09:27:46;9.60;38.10
43862;DHT22;29510;52.140;5.034;2024-02-21T09:37:47;9.60;39.00
43862;DHT22;29510;52.140;5.034;2024-02-21T09:58:20;9.70;33.40
43862;DHT22;29510;52.140;5.034;2024-02-21T10:08:21;9.80;26.80
43862;DHT22;29510;52.140;5.034;2024-02-21T10:18:21;9.80;24.70
43862;DHT22;29510;52.140;5.034;2024-02-21T10:28:23;9.90;22.40
43862;DHT22;29510;52.140;5.034;2024-02-21T10:38:24;10.00;16.90
43862;DHT22;29510;52.140;5.034;2024-02-21T10:48:30;10.20;15.40
43862;DHT22;29510;52.140;5.034;2024-02-21T10:58:34;10.20;11.70
43862;DHT22;29510;52.140;5.034;2024-02-21T11:08:34;10.30;9.30
43862;DHT22;29510;52.140;5.034;2024-02-21T11:18:38;10.40;9.10
43862;DHT22;29510;52.140;5.034;2024-02-21T11:28:39;10.30;7.70
43862;DHT22;29510;52.140;5.034;2024-02-21T11:38:39;10.20;5.60
43862;DHT22;29510;52.140;5.034;2024-02-21T11:48:41;10.20;5.10
43862;DHT22;29510;52.140;5.034;2024-02-21T11:58:42;10.40;4.20
43862;DHT22;29510;52.140;5.034;2024-02-21T12:08:43;10.50;1.70
43862;DHT22;29510;52.140;5.034;2024-02-21T12:18:44;10.80;1.00
43862;DHT22;29510;52.140;5.034;2024-02-21T12:28:44;10.80;1.00
43862;DHT22;29510;52.140;5.034;2024-02-21T12:38:45;10.90;1.00
43862;DHT22;29510;52.140;5.034;2024-02-21T12:48:49;10.80;1.00
43862;DHT22;29510;52.140;5.034;2024-02-21T12:58:50;10.90;1.00
43862;DHT22;29510;52.140;5.034;2024-02-21T13:08:51;10.80;1.00
43862;DHT22;29510;52.140;5.034;2024-02-21T13:18:52;10.80;1.00
43862;DHT22;29510;52.140;5.034;2024-02-21T13:28:53;10.90;1.00
43862;DHT22;29510;52.140;5.034;2024-02-21T13:38:53;10.70;1.00
43862;DHT22;29510;52.140;5.034;2024-02-21T13:49:02;10.70;1.00
43862;DHT22;29510;52.140;5.034;2024-02-21T13:59:04;10.60;1.00
43862;DHT22;29510;52.140;5.034;2024-02-21T14:09:05;10.60;1.00
43862;DHT22;29510;52.140;5.034;2024-02-21T14:19:06;10.60;1.00
43862;DHT22;29510;52.140;5.034;2024-02-21T14:29:10;10.50;1.00
43862;DHT22;29510;52.140;5.034;2024-02-21T14:39:11;10.30;1.00
43862;DHT22;29510;52.140;5.034;2024-02-21T14:49:11;10.30;1.00
43862;DHT22;29510;52.140;5.034;2024-02-21T14:59:12;10.20;2.90
43862;DHT22;29510;52.140;5.034;2024-02-21T15:09:13;10.10;12.30
43862;DHT22;29510;52.140;5.034;2024-02-21T15:19:14;9.80;32.60
43862;DHT22;29510;52.140;5.034;2024-02-21T15:29:15;9.60;60.40
43862;DHT22;29510;52.140;5.034;2024-02-21T15:39:16;9.40;86.60
43862;DHT22;29510;52.140;5.034;2024-02-21T15:49:17;9.20;99.90
43862;DHT22;29510;52.140;5.034;2024-02-21T15:59:17;9.20;99.90
43862;DHT22;29510;52.140;5.034;2024-02-21T16:09:18;9.20;99.90
43862;DHT22;29510;52.140;5.034;2024-02-21T16:19:18;9.20;99.90
43862;DHT22;29510;52.140;5.034;2024-02-21T16:29:19;9.20;99.90
43862;DHT22;29510;52.140;5.034;2024-02-21T16:39:19;9.20;99.90
43862;DHT22;29510;52.140;5.034;2024-02-21T16:49:21;9.10;99.90
43862;DHT22;29510;52.140;5.034;2024-02-21T16:59:21;9.00;99.90
43862;DHT22;29510;52.140;5.034;2024-02-21T17:09:22;9.00;99.90
43862;DHT22;29510;52.140;5.034;2024-02-21T17:19:23;9.00;99.90
43862;DHT22;29510;52.140;5.034;2024-02-21T17:29:23;8.90;99.90
43862;DHT22;29510;52.140;5.034;2024-02-21T17:39:24;9.00;99.90
43862;DHT22;29510;52.140;5.034;2024-02-21T17:49:25;8.90;99.90
43862;DHT22;29510;52.140;5.034;2024-02-21T17:59:25;9.00;99.90
43862;DHT22;29510;52.140;5.034;2024-02-21T18:09:26;9.00;99.90
43862;DHT22;29510;52.140;5.034;2024-02-21T18:19:27;8.90;99.90
43862;DHT22;29510;52.140;5.034;2024-02-21T18:29:27;9.00;99.90
43862;DHT22;29510;52.140;5.034;2024-02-21T18:39:31;9.00;99.90
43862;DHT22;29510;52.140;5.034;2024-02-21T18:49:31;9.10;99.90
43862;DHT22;29510;52.140;5.034;2024-02-21T18:59:32;9.10;99.90
43862;DHT22;29510;52.140;5.034;2024-02-21T19:09:33;9.10;99.90
43862;DHT22;29510;52.140;5.034;2024-02-21T19:19:33;9.20;99.90
43862;DHT22;29510;52.140;5.034;2024-02-21T19:29:34;9.20;99.90
43862;DHT22;29510;52.140;5.034;2024-02-21T19:39:35;9.20;99.90
43862;DHT22;29510;52.140;5.034;2024-02-21T19:49:35;9.30;99.90
43862;DHT22;29510;52.140;5.034;2024-02-21T19:59:47;9.40;99.90
43862;DHT22;29510;52.140;5.034;2024-02-21T20:09:48;9.50;99.90
43862;DHT22;29510;52.140;5.034;2024-02-21T20:19:48;9.40;99.90
43862;DHT22;29510;52.140;5.034;2024-02-21T20:29:49;9.40;99.90
43862;DHT22;29510;52.140;5.034;2024-02-21T20:39:49;9.50;99.90
43862;DHT22;29510;52.140;5.034;2024-02-21T20:49:50;9.50;99.90
43862;DHT22;29510;52.140;5.034;2024-02-21T20:59:53;9.50;99.90
43862;DHT22;29510;52.140;5.034;2024-02-21T21:09:54;9.50;99.90
43862;DHT22;29510;52.140;5.034;2024-02-21T21:19:55;9.50;99.90
43862;DHT22;29510;52.140;5.034;2024-02-21T21:29:56;9.60;99.90
43862;DHT22;29510;52.140;5.034;2024-02-21T21:39:56;9.70;99.90
43862;DHT22;29510;52.140;5.034;2024-02-21T21:49:58;9.80;99.90
43862;DHT22;29510;52.140;5.034;2024-02-21T21:59:59;9.90;99.90
43862;DHT22;29510;52.140;5.034;2024-02-21T22:10:00;10.00;99.90
43862;DHT22;29510;52.140;5.034;2024-02-21T22:20:01;10.00;99.90
43862;DHT22;29510;52.140;5.034;2024-02-21T22:30:02;10.00;99.90
43862;DHT22;29510;52.140;5.034;2024-02-21T22:40:03;10.00;99.90
43862;DHT22;29510;52.140;5.034;2024-02-21T22:50:04;10.10;99.90
43862;DHT22;29510;52.140;5.034;2024-02-21T23:00:05;10.10;99.90
43862;DHT22;29510;52.140;5.034;2024-02-21T23:10:09;10.20;99.90
43862;DHT22;29510;52.140;5.034;2024-02-21T23:20:10;10.20;99.90
43862;DHT22;29510;52.140;5.034;2024-02-21T23:30:11;10.20;99.90
43862;DHT22;29510;52.140;5.034;2024-02-21T23:40:12;10.30;99.90
43862;DHT22;29510;52.140;5.034;2024-02-21T23:50:13;10.30;99.90
